Latest Coastal Weather Observations for Yamba

IDN60701

Issued at 10:41 am EDT Friday 27 March 2015 (issued every 10 minutes, with the page automatically refreshed every 10 minutes)

About coastal observations | Map of coastal stations | Coastal observations for NSW | Marine services | Other Formats
Station Details ID: 058012 Name: YAMBA PILOT STATION Lat: -29.43 Lon: 153.36 Height: 27.4 m
Data from the previous 72 hours. | See also: Recent months at Yamba
Date/Time
EDT
Temp

°C
Wind Pressure Rain
since 9am
mm
Weather Cloud Vis
km
Sea
Height
m
Swell
Dir
 
Speed
knots
Gust
knots
hPa Trend Height
m
Period
s
Dir
27/10:30am 25.2 SSE 13 20 1019.8 - 0.0 - - - - - - -
27/10:00am 25.3 SSE 12 19 1019.7 - 0.0 - - - - - - -
27/09:30am 24.8 S 12 19 1019.1 - 0.0 - - - - - - -
27/09:00am 24.6 S 13 23 1018.8 - 0.0 - - - - - - -
27/08:30am 24.0 S 9 18 1018.6 - 0.0 - - - - - - -
27/08:00am 23.7 S 9 15 1018.2 - 0.0 - - - - - - -
27/07:30am 23.2 S 10 15 1017.8 - 0.0 - - - - - - -
27/07:00am 22.8 S 9 16 1017.4 - 0.0 - - - - - - -
27/06:30am 22.9 SSE 10 19 1017.1 - 0.0 - - - - - - -
27/06:00am 23.4 SSW 8 14 1016.6 - 0.0 - - - - - - -
27/05:30am 23.1 SSW 5 6 1016.3 - 0.0 - - - - - - -
27/05:00am 22.8 SW 4 6 1015.9 - 0.0 - - - - - - -
27/04:30am 23.1 SW 4 6 1015.7 - 0.0 - - - - - - -
27/04:00am 23.0 S 4 6 1015.8 - 0.0 - - - - - - -
27/03:30am 22.7 SW 3 5 1015.7 - 0.0 - - - - - - -
27/03:00am 22.6 SW 3 6 1015.6 - 0.0 - - - - - - -
27/02:30am 22.6 NNW 3 3 1015.7 - 0.0 - - - - - - -
27/02:00am 22.8 NNW 2 4 1015.9 - 0.0 - - - - - - -
27/01:30am 22.8 NNW 3 5 1015.8 - 0.0 - - - - - - -
27/01:00am 22.7 NW 4 8 1015.9 - 0.0 - - - - - - -
27/12:30am 22.7 NNW 4 5 1016.1 - 0.0 - - - - - - -
27/12:00am 23.3 N 4 8 1016.1 - 0.0 - - - - - - -
 
Date/Time
EDT
Temp

°C
Wind Pressure Rain
since 9am
mm
Weather Cloud Vis
km
Sea
Height
m
Swell
Dir
 
Speed
knots
Gust
knots
hPa Trend Height
m
Period
s
Dir
26/11:30pm 23.8 N 3 6 1016.1 - 0.0 - - - - - - -
26/11:00pm 24.4 W 7 10 1016.1 - 0.0 - - - - - - -
26/10:30pm 24.7 W 7 9 1016.0 - 0.0 - - - - - - -
26/10:00pm 24.6 NW 6 9 1016.2 - 0.0 - - - - - - -
26/09:30pm 24.7 NW 6 10 1015.9 - 0.0 - - - - - - -
26/09:00pm 25.3 NW 5 10 1015.9 - 0.0 - - - - - - -
26/08:30pm 25.8 NNW 5 8 1015.9 - 0.0 - - - - - - -
26/08:00pm 26.0 N 6 12 1015.4 - 0.0 - - - - - - -
26/07:30pm 26.0 N 5 11 1015.0 - 0.0 - - - - - - -
26/07:00pm 26.0 N 6 11 1015.0 - 0.0 - - - - - - -
26/06:30pm 26.7 N 6 10 1014.3 - 0.0 - - - - - - -
26/06:00pm 26.8 NNE 7 11 1014.3 - 0.0 - - - - - - -
26/05:30pm 26.1 NE 6 11 1013.8 - 0.0 - - - - - - -
26/05:00pm 26.6 NNE 6 10 1014.2 - 0.0 - - - - - - -
26/04:30pm 26.7 NNE 5 9 1014.3 - 0.0 - - - - - - -
26/04:00pm 27.4 N 6 10 1014.4 - 0.0 - - - - - - -
26/03:30pm 29.0 NNE 6 8 1014.8 - 0.0 - - - - - - -
26/03:00pm 28.2 NE 5 9 1015.0 - 0.0 - - - - - - -
26/02:30pm 28.2 NE 5 8 1015.5 - 0.0 - - - - - - -
26/02:00pm 28.1 ENE 5 7 1015.8 - 0.0 - - - - - - -
26/01:30pm 27.6 NE 5 6 1016.3 - 0.0 - - - - - - -
26/01:00pm 29.0 NNE 3 6 1017.0 - 0.0 - - - - - - -
26/12:30pm 28.0 NW 4 6 1017.4 - 0.0 - - - - - - -
26/12:00pm 28.1 NNW 5 6 1017.6 - 0.0 - - - - - - -
26/11:30am 27.9 NNW 4 6 1017.8 - 0.0 - - - - - - -
26/11:00am 27.5 WNW 4 7 1018.0 - 0.0 - - - - - - -
26/10:30am 26.1 WSW 4 7 1018.0 - 0.0 - - - - - - -
26/10:00am 25.1 WSW 6 10 1018.2 - 0.0 - - - - - - -
26/09:30am 24.7 SW 5 10 1018.0 - 0.0 - - - - - - -
26/09:00am 23.4 SSW 6 9 1017.8 - 1.2 - - - - - - -
26/08:30am 22.4 WSW 5 9 1017.6 - 1.2 - - - - - - -
26/08:00am 21.7 WSW 7 10 1017.4 - 1.2 - - - - - - -
26/07:30am 21.5 WSW 5 7 1017.2 - 1.2 - - - - - - -
26/07:00am 21.2 SW 5 7 1017.1 - 1.2 - - - - - - -
26/06:30am 21.1 SW 4 7 1017.0 - 1.2 - - - - - - -
26/06:00am 21.0 WSW 6 8 1016.7 - 1.2 - - - - - - -
26/05:30am 21.2 WSW 5 7 1016.6 - 1.2 - - - - - - -
26/05:00am 21.1 SW 5 8 1016.4 - 1.2 - - - - - - -
26/04:30am 21.2 SW 6 9 1016.2 - 1.2 - - - - - - -
26/04:00am 21.2 SW 5 8 1016.3 - 1.2 - - - - - - -
26/03:30am 21.4 SW 5 7 1016.2 - 1.2 - - - - - - -
26/03:00am 21.7 SW 5 8 1016.5 - 1.2 Recent precip. - - - - - -
26/02:30am 22.0 WSW 5 9 1016.8 - 0.6 - - - - - - -
26/02:00am 22.2 WNW 5 7 1016.8 - 0.6 - - - - - - -
26/01:30am 22.5 WSW 6 8 1016.9 - 0.4 - - - - - - -
26/01:00am 23.1 SW 4 6 1017.0 - 0.2 - - - - - - -
26/12:30am 24.1 SE 7 9 1017.3 - 0.0 - - - - - - -
26/12:00am 24.0 SE 9 12 1017.3 - 0.0 - - - - - - -
 
Date/Time
EDT
Temp

°C
Wind Pressure Rain
since 9am
mm
Weather Cloud Vis
km
Sea
Height
m
Swell
Dir
 
Speed
knots
Gust
knots
hPa Trend Height
m
Period
s
Dir
25/11:30pm 23.9 SE 10 12 1017.7 - 0.0 - - - - - - -
25/11:00pm 24.1 SE 12 16 1017.5 - 0.0 - - - - - - -
25/10:30pm 24.2 SE 10 13 1017.6 - 0.0 - - - - - - -
25/10:00pm 23.8 SE 12 16 1017.5 - 0.0 - - - - - - -
25/09:30pm 23.9 SE 13 16 1017.6 - 0.0 - - - - - - -
25/09:00pm 24.2 SE 11 14 1017.5 - 0.0 - - - - - - -
25/08:30pm 24.3 SE 11 15 1016.6 - 0.0 - - - - - - -
25/08:00pm 24.4 SE 12 15 1016.5 - 0.0 - - - - - - -
25/07:30pm 24.4 SE 16 21 1015.9 - 0.0 - - - - - - -
25/07:00pm 24.7 SE 14 18 1015.7 - 0.0 - - - - - - -
25/06:30pm 24.8 SE 14 18 1015.4 - 0.0 - - - - - - -
25/06:00pm 25.1 SE 14 18 1015.1 - 0.0 - - - - - - -
25/05:30pm 25.2 SE 14 18 1014.7 - 0.0 - - - - - - -
25/05:00pm 25.3 SE 14 17 1014.6 - 0.0 - - - - - - -
25/04:30pm 25.7 SE 15 20 1014.2 - 0.0 - - - - - - -
25/04:00pm 25.8 SE 13 18 1014.3 - 0.0 - - - - - - -
25/03:30pm 26.3 SE 15 19 1014.2 - 0.0 - - - - - - -
25/03:00pm 25.7 SE 15 18 1014.3 - 0.0 - - - - - - -
25/02:30pm 26.0 SE 15 17 1014.3 - 0.0 - - - - - - -
25/02:00pm 26.0 SE 16 19 1014.4 - 0.0 - - - - - - -
25/01:30pm 26.6 SE 16 20 1014.5 - 0.0 - - - - - - -
25/01:00pm 26.6 SE 17 21 1014.8 - 0.0 - - - - - - -
25/12:30pm 26.2 SE 15 21 1015.2 - 0.0 - - - - - - -
25/12:00pm 27.3 SE 15 19 1015.2 - 0.0 - - - - - - -
25/11:30am 26.9 SE 15 20 1015.1 - 0.0 - - - - - - -
25/11:00am 26.8 SSE 14 19 1015.1 - 0.0 - - - - - - -
25/10:30am 26.5 SSE 13 19 1015.1 - 0.0 - - - - - - -
25/10:00am 26.6 SSE 8 12 1015.0 - 0.0 - - - - - - -
25/09:30am 26.4 SSE 6 9 1014.8 - 0.0 - - - - - - -
25/09:00am 25.7 S 7 11 1014.6 - 0.0 - - - - - - -
25/08:30am 24.5 WSW 2 5 1014.1 - 0.0 - - - - - - -
25/08:00am 23.7 NNW 3 5 1013.5 - 0.0 - - - - - - -
25/07:30am 22.6 NNW 4 6 1012.8 - 0.0 - - - - - - -
25/07:00am 22.4 NNW 5 7 1012.3 - 0.0 - - - - - - -
25/06:30am 22.6 NNW 5 7 1011.8 - 0.0 - - - - - - -
25/06:00am 22.8 NNW 5 7 1011.4 - 0.0 - - - - - - -
25/05:30am 22.9 NNW 6 9 1011.1 - 0.0 - - - - - - -
25/05:00am 23.0 NNW 7 10 1010.7 - 0.0 - - - - - - -
25/04:30am 23.2 NNW 7 9 1010.6 - 0.0 - - - - - - -
25/04:00am 23.6 NNW 7 10 1010.7 - 0.0 - - - - - - -
25/03:30am 24.0 NNW 8 14 1010.8 - 0.0 - - - - - - -
25/03:00am 23.9 NW 7 10 1011.0 - 0.0 - - - - - - -
25/02:30am 23.6 NNW 6 9 1011.2 - 0.0 - - - - - - -
25/02:00am 23.6 NW 7 10 1011.5 - 0.0 - - - - - - -
25/01:30am 23.5 NNW 7 13 1011.6 - 0.0 - - - - - - -
25/01:00am 23.4 NNW 6 9 1011.6 - 0.0 - - - - - - -
25/12:30am 23.4 NNW 5 7 1011.9 - 0.0 - - - - - - -
25/12:00am 23.5 NNW 6 10 1012.3 - 0.0 - - - - - - -
 
Date/Time
EDT
Temp

°C
Wind Pressure Rain
since 9am
mm
Weather Cloud Vis
km
Sea
Height
m
Swell
Dir
 
Speed
knots
Gust
knots
hPa Trend Height
m
Period
s
Dir
24/11:30pm 23.6 NNW 7 10 1012.4 - 0.0 - - - - - - -
24/11:00pm 23.9 N 8 13 1011.9 - 0.0 - - - - - - -
24/10:30pm 24.0 N 8 13 1011.7 - 0.0 - - - - - - -
24/10:00pm 24.1 NNW 8 13 1012.2 - 0.0 - - - - - - -
24/09:30pm 24.3 N 8 14 1012.3 - 0.0 - - - - - - -
24/09:00pm 24.4 N 9 16 1012.1 - 0.0 - - - - - - -
24/08:30pm 24.7 N 8 13 1011.7 - 0.0 - - - - - - -
24/08:00pm 24.8 N 7 13 1011.6 - 0.0 - - - - - - -
24/07:30pm 25.0 N 7 13 1011.4 - 0.0 - - - - - - -
24/07:00pm 25.2 N 8 14 1011.1 - 0.0 - - - - - - -
24/06:30pm 25.6 N 8 14 1010.8 - 0.0 - - - - - - -
24/06:00pm 26.7 N 7 15 1010.7 - 0.0 - - - - - - -
24/05:30pm 27.5 N 7 12 1010.7 - 0.0 - - - - - - -
24/05:00pm 27.9 N 7 14 1010.7 - 0.0 - - - - - - -
24/04:30pm 28.4 N 8 14 1010.9 - 0.0 - - - - - - -
24/04:00pm 28.2 NNE 9 14 1011.2 - 0.0 - - - - - - -
24/03:30pm 28.6 N 9 13 1011.5 - 0.0 - - - - - - -
24/03:00pm 28.8 N 7 13 1012.1 - 0.0 - - - - - - -
24/02:30pm 28.6 NNE 7 11 1012.5 - 0.0 - - - - - - -
24/02:00pm 28.2 NNE 7 12 1012.8 - 0.0 - - - - - - -
24/01:30pm 28.5 NNE 6 9 1013.2 - 0.0 - - - - - - -
24/01:00pm 29.0 NNE 7 11 1013.8 - 0.0 - - - - - - -
24/12:30pm 29.4 N 5 9 1014.4 - 0.0 - - - - - - -
24/12:00pm 28.7 NNW 5 7 1014.8 - 0.0 - - - - - - -
24/11:30am 28.3 NW 6 9 1015.2 - 0.0 - - - - - - -
24/11:00am 27.3 NNW 6 8 1015.5 - 0.0 - - - - - - -

Other Formats:

Comma delimited format used in spreadsheet applications
http://www.bom.gov.au/fwo/IDN60701/IDN60701.94589.axf

JavaScript Object Notation format (JSON) in row-major order
http://www.bom.gov.au/fwo/IDN60701/IDN60701.94589.json